sensor_id;sensor_type;location;lat;lon;timestamp;pressure;altitude;pressure_sealevel;temperature;humidity
40954;BME280;26686;50.130;8.710;2023-04-27T00:01:47;100354.94;;;10.57;45.78
40954;BME280;26686;50.130;8.710;2023-04-27T00:06:49;100356.72;;;10.46;45.78
40954;BME280;26686;50.130;8.710;2023-04-27T00:11:51;100355.91;;;10.45;45.91
40954;BME280;26686;50.130;8.710;2023-04-27T00:16:54;100349.72;;;10.44;46.14
40954;BME280;26686;50.130;8.710;2023-04-27T00:21:55;100337.25;;;10.34;46.17
40954;BME280;26686;50.130;8.710;2023-04-27T00:26:58;100324.03;;;10.32;46.02
40954;BME280;26686;50.130;8.710;2023-04-27T00:31:59;100326.81;;;10.19;46.27
40954;BME280;26686;50.130;8.710;2023-04-27T00:37:01;100330.31;;;10.20;46.36
40954;BME280;26686;50.130;8.710;2023-04-27T00:42:03;100324.84;;;10.10;46.65
40954;BME280;26686;50.130;8.710;2023-04-27T00:47:04;100331.63;;;10.14;46.69
40954;BME280;26686;50.130;8.710;2023-04-27T00:52:06;100330.41;;;10.07;46.89
40954;BME280;26686;50.130;8.710;2023-04-27T00:57:08;100327.75;;;10.07;46.98
40954;BME280;26686;50.130;8.710;2023-04-27T01:02:10;100340.56;;;10.02;46.91
40954;BME280;26686;50.130;8.710;2023-04-27T01:07:12;100350.22;;;9.91;46.88
40954;BME280;26686;50.130;8.710;2023-04-27T01:12:13;100348.25;;;9.82;47.03
40954;BME280;26686;50.130;8.710;2023-04-27T01:17:15;100346.91;;;9.77;47.59
40954;BME280;26686;50.130;8.710;2023-04-27T01:22:18;100346.91;;;9.77;47.59
40954;BME280;26686;50.130;8.710;2023-04-27T01:27:19;100353.47;;;9.84;47.34
40954;BME280;26686;50.130;8.710;2023-04-27T01:32:21;100348.25;;;9.82;47.77
40954;BME280;26686;50.130;8.710;2023-04-27T01:37:23;100350.06;;;9.82;47.64
40954;BME280;26686;50.130;8.710;2023-04-27T01:42:24;100358.38;;;9.77;47.94
40954;BME280;26686;50.130;8.710;2023-04-27T01:47:26;100364.78;;;9.75;47.87
40954;BME280;26686;50.130;8.710;2023-04-27T01:52:28;100369.59;;;9.69;48.25
40954;BME280;26686;50.130;8.710;2023-04-27T01:57:29;100380.78;;;9.62;48.43
40954;BME280;26686;50.130;8.710;2023-04-27T02:02:31;100374.00;;;9.58;48.47
40954;BME280;26686;50.130;8.710;2023-04-27T02:07:33;100390.94;;;9.57;48.41
40954;BME280;26686;50.130;8.710;2023-04-27T02:12:35;100383.91;;;9.55;48.46
40954;BME280;26686;50.130;8.710;2023-04-27T02:17:36;100380.75;;;9.50;48.35
40954;BME280;26686;50.130;8.710;2023-04-27T02:22:43;100383.53;;;9.49;48.76
40954;BME280;26686;50.130;8.710;2023-04-27T02:27:45;100373.66;;;9.38;48.82
40954;BME280;26686;50.130;8.710;2023-04-27T02:32:47;100378.53;;;9.44;48.42
40954;BME280;26686;50.130;8.710;2023-04-27T02:37:48;100386.91;;;9.51;48.49
40954;BME280;26686;50.130;8.710;2023-04-27T02:42:50;100387.88;;;9.50;48.44
40954;BME280;26686;50.130;8.710;2023-04-27T02:47:52;100389.47;;;9.52;48.22
40954;BME280;26686;50.130;8.710;2023-04-27T02:52:53;100396.94;;;9.47;48.67
40954;BME280;26686;50.130;8.710;2023-04-27T02:57:55;100389.72;;;9.36;48.43
40954;BME280;26686;50.130;8.710;2023-04-27T03:02:57;100379.56;;;9.30;48.81
40954;BME280;26686;50.130;8.710;2023-04-27T03:07:58;100387.34;;;9.20;49.30
40954;BME280;26686;50.130;8.710;2023-04-27T03:12:59;100383.22;;;9.16;49.18
40954;BME280;26686;50.130;8.710;2023-04-27T03:18:01;100373.78;;;9.12;49.36
40954;BME280;26686;50.130;8.710;2023-04-27T03:23:02;100368.34;;;9.14;49.37
40954;BME280;26686;50.130;8.710;2023-04-27T03:28:03;100370.16;;;9.13;49.66
40954;BME280;26686;50.130;8.710;2023-04-27T03:33:05;100372.81;;;9.13;49.69
40954;BME280;26686;50.130;8.710;2023-04-27T03:38:06;100372.94;;;9.12;49.71
40954;BME280;26686;50.130;8.710;2023-04-27T03:43:08;100362.31;;;9.12;49.73
40954;BME280;26686;50.130;8.710;2023-04-27T03:48:09;100363.91;;;9.14;49.84
40954;BME280;26686;50.130;8.710;2023-04-27T03:53:11;100358.81;;;9.11;49.89
40954;BME280;26686;50.130;8.710;2023-04-27T03:58:13;100367.97;;;9.07;49.70
40954;BME280;26686;50.130;8.710;2023-04-27T04:03:14;100372.97;;;8.99;50.05
40954;BME280;26686;50.130;8.710;2023-04-27T04:08:16;100378.16;;;9.00;49.97
40954;BME280;26686;50.130;8.710;2023-04-27T04:13:18;100386.00;;;9.02;49.74
40954;BME280;26686;50.130;8.710;2023-04-27T04:18:19;100378.91;;;9.02;49.96
40954;BME280;26686;50.130;8.710;2023-04-27T04:23:21;100389.66;;;9.01;50.26
40954;BME280;26686;50.130;8.710;2023-04-27T04:28:23;100382.63;;;9.00;50.23
40954;BME280;26686;50.130;8.710;2023-04-27T04:33:25;100382.63;;;9.00;50.58
40954;BME280;26686;50.130;8.710;2023-04-27T04:38:26;100390.59;;;9.00;50.43
40954;BME280;26686;50.130;8.710;2023-04-27T04:43:28;100395.41;;;8.95;50.50
40954;BME280;26686;50.130;8.710;2023-04-27T04:48:29;100397.41;;;8.91;50.64
40954;BME280;26686;50.130;8.710;2023-04-27T04:53:30;100401.78;;;8.79;51.36
40954;BME280;26686;50.130;8.710;2023-04-27T04:58:32;100394.16;;;8.75;51.27
40954;BME280;26686;50.130;8.710;2023-04-27T05:03:33;100399.03;;;8.68;51.91
40954;BME280;26686;50.130;8.710;2023-04-27T05:08:35;100397.56;;;8.64;51.91
40954;BME280;26686;50.130;8.710;2023-04-27T05:13:37;100404.03;;;8.73;51.80
40954;BME280;26686;50.130;8.710;2023-04-27T05:18:39;100407.53;;;8.73;51.38
40954;BME280;26686;50.130;8.710;2023-04-27T05:23:41;100414.31;;;8.77;51.16
40954;BME280;26686;50.130;8.710;2023-04-27T05:28:42;100423.56;;;8.84;51.28
40954;BME280;26686;50.130;8.710;2023-04-27T05:33:44;100419.50;;;8.92;51.11
40954;BME280;26686;50.130;8.710;2023-04-27T05:38:45;100421.72;;;8.98;51.11
40954;BME280;26686;50.130;8.710;2023-04-27T05:43:47;100420.75;;;8.99;51.23
40954;BME280;26686;50.130;8.710;2023-04-27T05:48:48;100428.81;;;9.10;50.87
40954;BME280;26686;50.130;8.710;2023-04-27T05:53:49;100430.34;;;9.26;50.27
40954;BME280;26686;50.130;8.710;2023-04-27T05:58:53;100435.13;;;9.33;50.37
40954;BME280;26686;50.130;8.710;2023-04-27T06:03:55;100448.38;;;9.46;50.30
40954;BME280;26686;50.130;8.710;2023-04-27T06:09:01;100453.09;;;9.67;49.77
40954;BME280;26686;50.130;8.710;2023-04-27T06:14:03;100455.78;;;9.78;49.79
40954;BME280;26686;50.130;8.710;2023-04-27T06:19:04;100451.47;;;9.88;49.02
40954;BME280;26686;50.130;8.710;2023-04-27T06:24:05;100453.97;;;10.03;48.47
40954;BME280;26686;50.130;8.710;2023-04-27T06:29:07;100463.22;;;10.21;48.16
40954;BME280;26686;50.130;8.710;2023-04-27T06:34:08;100459.19;;;10.40;47.90
40954;BME280;26686;50.130;8.710;2023-04-27T06:39:10;100469.03;;;10.62;47.33
40954;BME280;26686;50.130;8.710;2023-04-27T06:44:11;100459.47;;;10.82;46.28
40954;BME280;26686;50.130;8.710;2023-04-27T06:49:12;100462.63;;;10.99;46.27
40954;BME280;26686;50.130;8.710;2023-04-27T06:54:14;100467.00;;;11.11;46.03
40954;BME280;26686;50.130;8.710;2023-04-27T06:59:16;100470.25;;;11.14;46.09
40954;BME280;26686;50.130;8.710;2023-04-27T07:04:18;100461.19;;;11.17;45.50
40954;BME280;26686;50.130;8.710;2023-04-27T07:09:20;100467.56;;;11.26;45.83
40954;BME280;26686;50.130;8.710;2023-04-27T07:14:26;100465.88;;;11.36;45.20
40954;BME280;26686;50.130;8.710;2023-04-27T07:19:28;100463.53;;;11.65;45.16
40954;BME280;26686;50.130;8.710;2023-04-27T07:24:29;100479.72;;;11.74;44.76
40954;BME280;26686;50.130;8.710;2023-04-27T07:29:32;100467.69;;;11.91;44.61
40954;BME280;26686;50.130;8.710;2023-04-27T07:34:34;100470.06;;;12.05;43.86
40954;BME280;26686;50.130;8.710;2023-04-27T07:39:54;100456.34;;;12.10;44.39
40954;BME280;26686;50.130;8.710;2023-04-27T07:44:55;100460.59;;;12.33;45.06
40954;BME280;26686;50.130;8.710;2023-04-27T07:49:57;100465.94;;;12.54;44.86
40954;BME280;26686;50.130;8.710;2023-04-27T07:54:58;100467.16;;;12.93;45.71
40954;BME280;26686;50.130;8.710;2023-04-27T08:00:00;100453.19;;;12.89;43.28
40954;BME280;26686;50.130;8.710;2023-04-27T08:05:02;100452.44;;;13.08;42.99
40954;BME280;26686;50.130;8.710;2023-04-27T08:10:06;100465.59;;;13.31;42.28
40954;BME280;26686;50.130;8.710;2023-04-27T08:15:09;100453.41;;;13.48;41.70
40954;BME280;26686;50.130;8.710;2023-04-27T08:20:11;100446.69;;;13.53;40.07
40954;BME280;26686;50.130;8.710;2023-04-27T08:25:12;100458.81;;;13.67;39.89
40954;BME280;26686;50.130;8.710;2023-04-27T08:30:14;100443.06;;;13.74;41.26
40954;BME280;26686;50.130;8.710;2023-04-27T08:35:16;100443.59;;;13.77;41.33
40954;BME280;26686;50.130;8.710;2023-04-27T08:40:17;100439.69;;;13.82;40.02
40954;BME280;26686;50.130;8.710;2023-04-27T08:45:21;100440.53;;;14.11;40.20
40954;BME280;26686;50.130;8.710;2023-04-27T08:50:22;100445.00;;;14.40;39.79
40954;BME280;26686;50.130;8.710;2023-04-27T08:55:24;100443.25;;;14.59;38.98
40954;BME280;26686;50.130;8.710;2023-04-27T09:00:26;100442.94;;;14.81;38.85
40954;BME280;26686;50.130;8.710;2023-04-27T09:05:27;100440.63;;;14.96;39.36
40954;BME280;26686;50.130;8.710;2023-04-27T09:10:29;100438.19;;;15.31;38.36
40954;BME280;26686;50.130;8.710;2023-04-27T09:15:40;100441.00;;;15.57;37.44
40954;BME280;26686;50.130;8.710;2023-04-27T09:20:46;100440.31;;;15.73;36.95
40954;BME280;26686;50.130;8.710;2023-04-27T09:25:48;100429.56;;;16.01;36.44
40954;BME280;26686;50.130;8.710;2023-04-27T09:30:54;100423.16;;;16.20;36.89
40954;BME280;26686;50.130;8.710;2023-04-27T09:35:57;100421.38;;;16.55;36.19
40954;BME280;26686;50.130;8.710;2023-04-27T09:41:00;100432.44;;;17.04;35.88
40954;BME280;26686;50.130;8.710;2023-04-27T09:46:03;100420.25;;;17.26;35.45
40954;BME280;26686;50.130;8.710;2023-04-27T09:51:04;100415.78;;;17.60;34.41
40954;BME280;26686;50.130;8.710;2023-04-27T09:56:26;100406.53;;;17.79;33.42
40954;BME280;26686;50.130;8.710;2023-04-27T10:11:54;100385.25;;;18.83;31.27
40954;BME280;26686;50.130;8.710;2023-04-27T10:16:56;100383.81;;;19.35;31.15
40954;BME280;26686;50.130;8.710;2023-04-27T10:22:00;100382.34;;;20.40;29.84
40954;BME280;26686;50.130;8.710;2023-04-27T10:27:07;100382.94;;;24.18;23.81
40954;BME280;26686;50.130;8.710;2023-04-27T10:32:23;100376.78;;;25.73;22.64
40954;BME280;26686;50.130;8.710;2023-04-27T10:37:40;100383.50;;;23.46;24.36
40954;BME280;26686;50.130;8.710;2023-04-27T10:42:43;100373.66;;;22.90;25.10
40954;BME280;26686;50.130;8.710;2023-04-27T10:47:45;100368.28;;;23.04;25.60
40954;BME280;26686;50.130;8.710;2023-04-27T10:52:47;100363.13;;;23.16;25.50
40954;BME280;26686;50.130;8.710;2023-04-27T10:57:50;100361.00;;;23.86;23.41
40954;BME280;26686;50.130;8.710;2023-04-27T11:02:53;100366.78;;;24.63;22.71
40954;BME280;26686;50.130;8.710;2023-04-27T11:08:10;100349.22;;;24.39;23.45
40954;BME280;26686;50.130;8.710;2023-04-27T11:13:13;100347.75;;;24.63;23.48
40954;BME280;26686;50.130;8.710;2023-04-27T11:18:17;100342.53;;;25.14;21.74
40954;BME280;26686;50.130;8.710;2023-04-27T11:23:29;100332.81;;;26.14;20.80
40954;BME280;26686;50.130;8.710;2023-04-27T11:28:37;100342.94;;;26.75;20.76
40954;BME280;26686;50.130;8.710;2023-04-27T11:33:46;100333.81;;;25.94;21.60
40954;BME280;26686;50.130;8.710;2023-04-27T11:38:48;100325.56;;;25.12;22.44
40954;BME280;26686;50.130;8.710;2023-04-27T11:43:50;100327.88;;;24.63;23.53
40954;BME280;26686;50.130;8.710;2023-04-27T11:48:51;100318.31;;;24.20;22.05
40954;BME280;26686;50.130;8.710;2023-04-27T11:53:53;100309.94;;;24.35;24.01
40954;BME280;26686;50.130;8.710;2023-04-27T11:58:55;100304.91;;;24.25;23.23
40954;BME280;26686;50.130;8.710;2023-04-27T12:03:56;100295.28;;;24.23;22.54
40954;BME280;26686;50.130;8.710;2023-04-27T12:09:02;100293.56;;;24.42;22.75
40954;BME280;26686;50.130;8.710;2023-04-27T12:14:04;100296.19;;;23.96;23.10
40954;BME280;26686;50.130;8.710;2023-04-27T12:19:05;100293.66;;;24.08;23.57
40954;BME280;26686;50.130;8.710;2023-04-27T12:24:07;100294.91;;;24.06;23.78
40954;BME280;26686;50.130;8.710;2023-04-27T12:29:08;100280.91;;;24.09;22.93
40954;BME280;26686;50.130;8.710;2023-04-27T12:34:10;100274.84;;;23.93;23.18
40954;BME280;26686;50.130;8.710;2023-04-27T12:39:16;100268.13;;;23.76;23.93
40954;BME280;26686;50.130;8.710;2023-04-27T12:44:19;100268.56;;;23.73;25.18
40954;BME280;26686;50.130;8.710;2023-04-27T12:49:21;100265.22;;;23.64;25.45
40954;BME280;26686;50.130;8.710;2023-04-27T12:54:22;100269.38;;;23.73;25.67
40954;BME280;26686;50.130;8.710;2023-04-27T12:59:24;100262.72;;;23.62;24.94
40954;BME280;26686;50.130;8.710;2023-04-27T13:04:26;100252.69;;;23.36;24.46
40954;BME280;26686;50.130;8.710;2023-04-27T13:09:28;100255.56;;;23.15;24.57
40954;BME280;26686;50.130;8.710;2023-04-27T13:14:29;100243.81;;;23.01;25.32
40954;BME280;26686;50.130;8.710;2023-04-27T13:19:33;100242.13;;;23.00;25.59
40954;BME280;26686;50.130;8.710;2023-04-27T13:24:35;100247.22;;;23.09;25.84
40954;BME280;26686;50.130;8.710;2023-04-27T13:29:37;100238.97;;;22.89;26.33
40954;BME280;26686;50.130;8.710;2023-04-27T13:34:38;100237.13;;;22.97;25.32
40954;BME280;26686;50.130;8.710;2023-04-27T13:39:39;100244.03;;;21.74;26.82
40954;BME280;26686;50.130;8.710;2023-04-27T13:44:41;100236.63;;;21.89;26.81
40954;BME280;26686;50.130;8.710;2023-04-27T13:49:42;100218.25;;;21.85;26.56
40954;BME280;26686;50.130;8.710;2023-04-27T13:54:44;100227.88;;;21.87;26.93
40954;BME280;26686;50.130;8.710;2023-04-27T13:59:45;100230.72;;;21.79;26.57
40954;BME280;26686;50.130;8.710;2023-04-27T14:04:47;100220.91;;;21.78;25.71
40954;BME280;26686;50.130;8.710;2023-04-27T14:09:48;100223.56;;;21.65;25.98
40954;BME280;26686;50.130;8.710;2023-04-27T14:14:50;100225.84;;;21.46;25.91
40954;BME280;26686;50.130;8.710;2023-04-27T14:19:51;100224.00;;;21.25;27.20
40954;BME280;26686;50.130;8.710;2023-04-27T14:24:53;100224.72;;;20.91;27.66
40954;BME280;26686;50.130;8.710;2023-04-27T14:29:56;100212.38;;;20.52;28.46
40954;BME280;26686;50.130;8.710;2023-04-27T14:34:58;100209.53;;;20.38;28.65
40954;BME280;26686;50.130;8.710;2023-04-27T14:39:59;100213.00;;;20.02;28.58
40954;BME280;26686;50.130;8.710;2023-04-27T14:45:01;100223.44;;;20.05;29.55
40954;BME280;26686;50.130;8.710;2023-04-27T14:50:03;100220.28;;;20.02;29.57
40954;BME280;26686;50.130;8.710;2023-04-27T14:55:05;100217.75;;;20.00;29.70
40954;BME280;26686;50.130;8.710;2023-04-27T15:00:07;100218.38;;;19.87;29.43
40954;BME280;26686;50.130;8.710;2023-04-27T15:05:14;100223.59;;;19.89;29.54
40954;BME280;26686;50.130;8.710;2023-04-27T15:10:16;100218.69;;;19.92;29.85
40954;BME280;26686;50.130;8.710;2023-04-27T15:15:17;100212.91;;;19.81;30.21
40954;BME280;26686;50.130;8.710;2023-04-27T15:20:18;100211.03;;;19.81;29.53
40954;BME280;26686;50.130;8.710;2023-04-27T15:25:20;100203.81;;;19.73;29.85
40954;BME280;26686;50.130;8.710;2023-04-27T15:30:22;100188.44;;;19.59;30.06
40954;BME280;26686;50.130;8.710;2023-04-27T15:35:23;100182.53;;;19.40;30.46
40954;BME280;26686;50.130;8.710;2023-04-27T15:40:25;100183.19;;;19.42;30.49
40954;BME280;26686;50.130;8.710;2023-04-27T15:45:27;100164.00;;;19.22;30.16
40954;BME280;26686;50.130;8.710;2023-04-27T15:50:29;100157.75;;;19.22;30.16
40954;BME280;26686;50.130;8.710;2023-04-27T15:55:30;100158.78;;;19.21;30.52
40954;BME280;26686;50.130;8.710;2023-04-27T16:00:33;100152.06;;;19.17;31.15
40954;BME280;26686;50.130;8.710;2023-04-27T16:05:35;100147.88;;;19.14;30.88
40954;BME280;26686;50.130;8.710;2023-04-27T16:10:36;100120.56;;;18.94;30.69
40954;BME280;26686;50.130;8.710;2023-04-27T16:15:38;100128.47;;;18.96;30.28
40954;BME280;26686;50.130;8.710;2023-04-27T16:20:39;100125.00;;;18.87;30.44
40954;BME280;26686;50.130;8.710;2023-04-27T16:25:41;100130.06;;;18.90;30.82
40954;BME280;26686;50.130;8.710;2023-04-27T16:30:42;100137.78;;;18.93;30.67
40954;BME280;26686;50.130;8.710;2023-04-27T16:35:44;100132.47;;;18.77;30.76
40954;BME280;26686;50.130;8.710;2023-04-27T16:40:45;100121.75;;;18.68;30.86
40954;BME280;26686;50.130;8.710;2023-04-27T16:45:47;100117.44;;;18.59;30.88
40954;BME280;26686;50.130;8.710;2023-04-27T16:50:48;100120.53;;;18.48;31.80
40954;BME280;26686;50.130;8.710;2023-04-27T16:55:49;100132.56;;;18.37;31.95
40954;BME280;26686;50.130;8.710;2023-04-27T17:00:51;100136.13;;;18.37;32.23
40954;BME280;26686;50.130;8.710;2023-04-27T17:05:52;100138.66;;;18.31;31.33
40954;BME280;26686;50.130;8.710;2023-04-27T17:10:54;100144.03;;;18.31;32.00
40954;BME280;26686;50.130;8.710;2023-04-27T17:15:55;100137.69;;;18.24;31.85
40954;BME280;26686;50.130;8.710;2023-04-27T17:20:57;100136.38;;;18.19;31.50
40954;BME280;26686;50.130;8.710;2023-04-27T17:25:58;100136.22;;;18.13;31.61
40954;BME280;26686;50.130;8.710;2023-04-27T17:31:00;100122.47;;;18.08;32.02
40954;BME280;26686;50.130;8.710;2023-04-27T17:36:02;100131.06;;;18.03;32.25
40954;BME280;26686;50.130;8.710;2023-04-27T17:41:03;100126.53;;;17.95;32.58
40954;BME280;26686;50.130;8.710;2023-04-27T17:46:08;100125.03;;;17.93;33.55
40954;BME280;26686;50.130;8.710;2023-04-27T17:51:10;100129.25;;;17.79;33.29
40954;BME280;26686;50.130;8.710;2023-04-27T17:56:11;100132.28;;;17.76;34.01
40954;BME280;26686;50.130;8.710;2023-04-27T18:01:12;100125.94;;;17.69;34.78
40954;BME280;26686;50.130;8.710;2023-04-27T18:06:14;100129.31;;;17.62;34.74
40954;BME280;26686;50.130;8.710;2023-04-27T18:11:15;100132.00;;;17.62;35.31
40954;BME280;26686;50.130;8.710;2023-04-27T18:16:16;100130.84;;;17.57;35.68
40954;BME280;26686;50.130;8.710;2023-04-27T18:21:18;100130.50;;;17.52;34.92
40954;BME280;26686;50.130;8.710;2023-04-27T18:26:19;100117.59;;;17.39;34.85
40954;BME280;26686;50.130;8.710;2023-04-27T18:31:22;100129.22;;;17.31;35.07
40954;BME280;26686;50.130;8.710;2023-04-27T18:36:25;100124.00;;;17.21;35.46
40954;BME280;26686;50.130;8.710;2023-04-27T18:41:27;100111.59;;;17.12;35.09
40954;BME280;26686;50.130;8.710;2023-04-27T18:46:29;100105.19;;;17.05;35.87
40954;BME280;26686;50.130;8.710;2023-04-27T18:51:31;100105.88;;;16.99;36.35
40954;BME280;26686;50.130;8.710;2023-04-27T18:56:33;100128.38;;;16.98;36.97
40954;BME280;26686;50.130;8.710;2023-04-27T19:01:34;100143.19;;;16.93;37.19
40954;BME280;26686;50.130;8.710;2023-04-27T19:06:38;100144.66;;;16.79;36.52
40954;BME280;26686;50.130;8.710;2023-04-27T19:11:39;100135.59;;;16.72;37.13
40954;BME280;26686;50.130;8.710;2023-04-27T19:16:41;100146.66;;;16.69;37.20
40954;BME280;26686;50.130;8.710;2023-04-27T19:21:42;100144.28;;;16.66;37.17
40954;BME280;26686;50.130;8.710;2023-04-27T19:26:44;100144.13;;;16.59;37.64
40954;BME280;26686;50.130;8.710;2023-04-27T19:31:47;100139.59;;;16.60;37.27
40954;BME280;26686;50.130;8.710;2023-04-27T19:36:48;100139.59;;;16.52;37.61
40954;BME280;26686;50.130;8.710;2023-04-27T19:41:50;100131.34;;;16.45;38.23
40954;BME280;26686;50.130;8.710;2023-04-27T19:46:51;100129.31;;;16.39;38.41
40954;BME280;26686;50.130;8.710;2023-04-27T19:51:53;100139.88;;;16.40;38.54
40954;BME280;26686;50.130;8.710;2023-04-27T19:56:54;100124.25;;;16.28;38.44
40954;BME280;26686;50.130;8.710;2023-04-27T20:01:56;100126.09;;;16.27;38.52
40954;BME280;26686;50.130;8.710;2023-04-27T20:06:57;100118.69;;;16.21;38.19
40954;BME280;26686;50.130;8.710;2023-04-27T20:11:59;100116.16;;;16.19;38.51
40954;BME280;26686;50.130;8.710;2023-04-27T20:17:00;100125.72;;;16.14;38.05
40954;BME280;26686;50.130;8.710;2023-04-27T20:22:03;100114.78;;;16.07;38.23
40954;BME280;26686;50.130;8.710;2023-04-27T20:27:04;100124.88;;;16.05;38.46
40954;BME280;26686;50.130;8.710;2023-04-27T20:32:07;100117.28;;;16.00;39.11
40954;BME280;26686;50.130;8.710;2023-04-27T20:37:08;100104.00;;;15.99;38.74
40954;BME280;26686;50.130;8.710;2023-04-27T20:42:10;100108.03;;;15.95;39.28
40954;BME280;26686;50.130;8.710;2023-04-27T20:47:13;100100.63;;;15.88;39.41
40954;BME280;26686;50.130;8.710;2023-04-27T20:52:14;100094.06;;;15.83;39.63
40954;BME280;26686;50.130;8.710;2023-04-27T20:57:16;100095.50;;;15.77;39.94
40954;BME280;26686;50.130;8.710;2023-04-27T21:02:17;100100.06;;;15.77;39.97
40954;BME280;26686;50.130;8.710;2023-04-27T21:07:19;100098.19;;;15.69;40.26
40954;BME280;26686;50.130;8.710;2023-04-27T21:12:21;100104.03;;;15.64;40.47
40954;BME280;26686;50.130;8.710;2023-04-27T21:17:23;100097.81;;;15.64;40.62
40954;BME280;26686;50.130;8.710;2023-04-27T21:22:25;100089.56;;;15.57;40.45
40954;BME280;26686;50.130;8.710;2023-04-27T21:27:27;100087.22;;;15.54;40.76
40954;BME280;26686;50.130;8.710;2023-04-27T21:32:28;100080.31;;;15.51;40.93
40954;BME280;26686;50.130;8.710;2023-04-27T21:37:30;100065.19;;;15.42;41.27
40954;BME280;26686;50.130;8.710;2023-04-27T21:42:31;100074.88;;;15.43;41.06
40954;BME280;26686;50.130;8.710;2023-04-27T21:47:33;100067.47;;;15.37;41.20
40954;BME280;26686;50.130;8.710;2023-04-27T21:52:34;100069.66;;;15.33;41.78
40954;BME280;26686;50.130;8.710;2023-04-27T21:57:36;100060.41;;;15.28;41.70
40954;BME280;26686;50.130;8.710;2023-04-27T22:02:39;100065.91;;;15.26;41.47
40954;BME280;26686;50.130;8.710;2023-04-27T22:07:44;100057.69;;;15.19;41.67
40954;BME280;26686;50.130;8.710;2023-04-27T22:12:46;100065.03;;;15.17;41.71
40954;BME280;26686;50.130;8.710;2023-04-27T22:17:47;100059.34;;;15.20;41.73
40954;BME280;26686;50.130;8.710;2023-04-27T22:22:50;100070.22;;;15.19;41.73
40954;BME280;26686;50.130;8.710;2023-04-27T22:27:51;100053.94;;;15.12;42.08
40954;BME280;26686;50.130;8.710;2023-04-27T22:32:53;100038.19;;;15.09;41.98
40954;BME280;26686;50.130;8.710;2023-04-27T22:37:54;100036.47;;;15.08;42.64
40954;BME280;26686;50.130;8.710;2023-04-27T22:42:56;100044.34;;;15.01;42.93
40954;BME280;26686;50.130;8.710;2023-04-27T22:47:57;100036.94;;;14.95;43.22
40954;BME280;26686;50.130;8.710;2023-04-27T22:52:59;100036.06;;;14.95;43.35
40954;BME280;26686;50.130;8.710;2023-04-27T22:58:01;100047.09;;;14.92;43.63
40954;BME280;26686;50.130;8.710;2023-04-27T23:03:02;100046.75;;;14.87;43.82
40954;BME280;26686;50.130;8.710;2023-04-27T23:08:04;100027.59;;;14.81;44.00
40954;BME280;26686;50.130;8.710;2023-04-27T23:13:05;100018.22;;;14.77;44.05
40954;BME280;26686;50.130;8.710;2023-04-27T23:18:07;100012.84;;;14.77;44.28
40954;BME280;26686;50.130;8.710;2023-04-27T23:23:08;100014.81;;;14.75;44.39
40954;BME280;26686;50.130;8.710;2023-04-27T23:28:12;100012.47;;;14.72;44.59
40954;BME280;26686;50.130;8.710;2023-04-27T23:33:13;100018.81;;;14.71;44.97
40954;BME280;26686;50.130;8.710;2023-04-27T23:38:15;100006.28;;;14.72;45.34
40954;BME280;26686;50.130;8.710;2023-04-27T23:43:17;100003.44;;;14.73;44.95
40954;BME280;26686;50.130;8.710;2023-04-27T23:48:18;99997.00;;;14.66;45.21
40954;BME280;26686;50.130;8.710;2023-04-27T23:53:19;99994.66;;;14.63;45.53
40954;BME280;26686;50.130;8.710;2023-04-27T23:58:21;99999.47;;;14.59;45.71
